createdAt,value
2022-08-08T00:00:59.983Z,17.60
2022-08-08T00:03:31.389Z,17.60
2022-08-08T00:06:28.264Z,17.50
2022-08-08T00:09:20.372Z,17.50
2022-08-08T00:12:07.708Z,17.50
2022-08-08T00:15:06.861Z,17.50
2022-08-08T00:18:02.438Z,17.40
2022-08-08T00:20:53.055Z,17.40
2022-08-08T00:23:42.773Z,17.40
2022-08-08T00:26:29.224Z,17.30
2022-08-08T00:29:08.117Z,17.30
2022-08-08T00:32:15.211Z,17.30
2022-08-08T00:35:20.138Z,17.30
2022-08-08T00:38:06.533Z,17.30
2022-08-08T00:41:10.276Z,17.20
2022-08-08T00:44:00.627Z,17.20
2022-08-08T00:47:19.370Z,17.10
2022-08-08T00:50:09.263Z,17.10
2022-08-08T00:53:06.892Z,17.10
2022-08-08T00:56:16.488Z,17.00
2022-08-08T00:58:58.469Z,17.00
2022-08-08T01:03:58.733Z,17.00
2022-08-08T01:05:42.375Z,17.00
2022-08-08T01:08:52.281Z,17.00
2022-08-08T01:11:37.770Z,16.90
2022-08-08T01:14:18.349Z,16.90
2022-08-08T01:17:20.097Z,16.90
2022-08-08T01:20:13.649Z,16.90
2022-08-08T01:23:03.493Z,16.80
2022-08-08T01:25:40.193Z,16.80
2022-08-08T01:28:18.036Z,16.80
2022-08-08T01:31:03.198Z,16.80
2022-08-08T01:34:04.961Z,16.80
2022-08-08T01:36:32.251Z,16.80
2022-08-08T01:39:23.294Z,16.70
2022-08-08T01:42:09.082Z,16.70
2022-08-08T01:45:02.899Z,16.70
2022-08-08T01:48:13.939Z,16.70
2022-08-08T01:51:30.330Z,16.70
2022-08-08T01:55:15.914Z,16.60
2022-08-08T01:57:10.693Z,16.60
2022-08-08T02:00:13.392Z,16.60
2022-08-08T02:02:56.996Z,16.60
2022-08-08T02:05:59.408Z,16.60
2022-08-08T02:08:49.197Z,16.60
2022-08-08T02:11:23.529Z,16.50
2022-08-08T02:14:25.264Z,16.50
2022-08-08T02:17:20.377Z,16.50
2022-08-08T02:20:14.761Z,16.50
2022-08-08T02:23:09.452Z,16.50
2022-08-08T02:26:16.436Z,16.50
2022-08-08T02:29:20.878Z,16.50
2022-08-08T02:32:00.684Z,16.40
2022-08-08T02:35:10.540Z,16.40
2022-08-08T02:37:56.742Z,16.40
2022-08-08T02:41:07.697Z,16.30
2022-08-08T02:44:38.863Z,16.30
2022-08-08T02:47:19.861Z,16.30
2022-08-08T02:50:07.881Z,16.20
2022-08-08T02:53:03.199Z,16.20
2022-08-08T02:55:37.131Z,16.10
2022-08-08T02:58:23.007Z,16.10
2022-08-08T03:01:14.566Z,16.10
2022-08-08T03:05:04.548Z,16.10
2022-08-08T03:07:57.768Z,16.00
2022-08-08T03:10:54.339Z,16.00
2022-08-08T03:16:01.432Z,16.00
2022-08-08T03:16:35.247Z,16.00
2022-08-08T03:19:33.551Z,16.00
2022-08-08T03:22:00.296Z,16.00
2022-08-08T03:24:28.712Z,16.00
2022-08-08T03:27:21.779Z,16.00
2022-08-08T03:30:01.878Z,16.00
2022-08-08T03:32:47.501Z,15.90
2022-08-08T03:35:30.135Z,15.90
2022-08-08T03:38:57.899Z,15.90
2022-08-08T03:40:53.987Z,15.90
2022-08-08T03:43:21.362Z,15.90
2022-08-08T03:46:06.325Z,15.90
2022-08-08T03:49:08.988Z,15.80
2022-08-08T03:51:40.670Z,15.80
2022-08-08T03:54:10.362Z,15.80
2022-08-08T03:56:43.485Z,15.80
2022-08-08T03:59:23.077Z,15.80
2022-08-08T04:02:12.826Z,15.70
2022-08-08T04:04:39.990Z,15.70
2022-08-08T04:07:08.566Z,15.70
2022-08-08T04:09:59.017Z,15.70
2022-08-08T04:12:23.942Z,15.70
2022-08-08T04:14:51.048Z,15.70
2022-08-08T04:17:46.661Z,15.70
2022-08-08T04:20:05.798Z,15.70
2022-08-08T04:22:35.707Z,15.70
2022-08-08T04:25:04.237Z,15.70
2022-08-08T04:28:02.723Z,15.70
2022-08-08T04:30:19.523Z,15.70
2022-08-08T04:32:49.814Z,15.70
2022-08-08T04:35:20.308Z,15.70
2022-08-08T04:37:50.443Z,15.70
2022-08-08T04:40:19.091Z,15.70
2022-08-08T04:42:56.837Z,15.70
2022-08-08T04:45:27.474Z,15.70
2022-08-08T04:47:58.633Z,15.70
2022-08-08T04:50:34.402Z,15.70
2022-08-08T04:53:14.071Z,15.70
2022-08-08T04:55:56.222Z,15.80
2022-08-08T04:58:23.642Z,15.80
2022-08-08T05:00:51.771Z,15.80
2022-08-08T05:04:10.876Z,15.80
2022-08-08T05:06:12.697Z,15.80
2022-08-08T05:08:42.495Z,15.80
2022-08-08T05:11:18.658Z,15.80
2022-08-08T05:13:57.995Z,15.90
2022-08-08T05:16:50.813Z,15.90
2022-08-08T05:20:12.407Z,15.90
2022-08-08T05:22:02.833Z,15.90
2022-08-08T05:24:30.913Z,15.90
2022-08-08T05:26:58.177Z,16.00
2022-08-08T05:29:28.396Z,16.00
2022-08-08T05:32:04.641Z,16.00
2022-08-08T05:34:41.284Z,16.00
2022-08-08T05:37:17.277Z,16.10
2022-08-08T05:39:53.183Z,16.10
2022-08-08T05:42:26.241Z,16.20
2022-08-08T05:44:54.165Z,16.30
2022-08-08T05:47:24.384Z,16.30
2022-08-08T05:49:58.618Z,16.30
2022-08-08T05:52:34.713Z,16.40
2022-08-08T05:55:08.970Z,16.40
2022-08-08T05:58:04.292Z,16.40
2022-08-08T06:00:34.636Z,16.50
2022-08-08T06:03:17.329Z,16.50
2022-08-08T06:06:07.404Z,16.60
2022-08-08T06:08:53.361Z,16.60
2022-08-08T06:11:22.798Z,16.70
2022-08-08T06:13:55.364Z,16.70
2022-08-08T06:16:25.026Z,16.80
2022-08-08T06:18:59.942Z,16.90
2022-08-08T06:21:32.405Z,16.90
2022-08-08T06:24:03.573Z,17.00
2022-08-08T06:26:45.556Z,17.10
2022-08-08T06:29:59.336Z,17.10
2022-08-08T06:32:31.673Z,17.20
2022-08-08T06:36:00.550Z,17.30
2022-08-08T06:38:02.059Z,17.40
2022-08-08T06:40:36.755Z,17.40
2022-08-08T06:43:09.456Z,17.60
2022-08-08T06:45:40.365Z,17.60
2022-08-08T06:48:08.587Z,17.70
2022-08-08T06:50:38.211Z,17.80
2022-08-08T06:53:14.351Z,17.90
2022-08-08T06:56:01.997Z,18.00
2022-08-08T06:58:30.910Z,18.10
2022-08-08T07:01:52.330Z,18.20
2022-08-08T07:04:37.476Z,18.40
2022-08-08T07:06:51.785Z,18.50
2022-08-08T07:09:21.360Z,18.60
2022-08-08T07:11:52.833Z,18.90
2022-08-08T07:14:36.435Z,19.60
2022-08-08T07:17:09.123Z,20.40
2022-08-08T07:20:02.313Z,21.40
2022-08-08T07:22:42.272Z,22.60
2022-08-08T07:25:14.376Z,23.70
2022-08-08T07:28:01.979Z,24.50
2022-08-08T07:30:34.899Z,25.30
2022-08-08T07:33:01.990Z,26.00
2022-08-08T07:35:30.726Z,26.40
2022-08-08T07:38:04.462Z,26.70
2022-08-08T07:40:38.042Z,27.00
2022-08-08T07:43:09.581Z,27.30
2022-08-08T07:46:05.757Z,27.80
2022-08-08T07:48:24.767Z,28.20
2022-08-08T07:51:01.466Z,28.70
2022-08-08T07:54:06.655Z,29.00
2022-08-08T07:56:43.795Z,29.40
2022-08-08T07:59:20.119Z,29.50
2022-08-08T08:02:35.445Z,29.60
2022-08-08T08:04:49.155Z,29.60
2022-08-08T08:07:25.996Z,29.50
2022-08-08T08:10:03.658Z,29.50
2022-08-08T08:12:35.495Z,29.50
2022-08-08T08:15:11.899Z,29.50
2022-08-08T08:17:48.610Z,29.50
2022-08-08T08:20:19.090Z,29.50
2022-08-08T08:22:47.655Z,29.50
2022-08-08T08:25:16.952Z,29.40
2022-08-08T08:28:02.857Z,29.30
2022-08-08T08:30:29.866Z,29.30
2022-08-08T08:32:56.577Z,29.20
2022-08-08T08:35:29.837Z,29.20
2022-08-08T08:38:17.598Z,29.20
2022-08-08T08:40:48.708Z,29.30
2022-08-08T08:43:19.848Z,29.40
2022-08-08T08:45:48.434Z,29.40
2022-08-08T08:48:19.722Z,29.50
2022-08-08T08:50:52.145Z,29.70
2022-08-08T08:53:54.722Z,29.90
2022-08-08T08:56:07.770Z,30.10
2022-08-08T08:58:46.776Z,30.20
2022-08-08T09:01:30.524Z,30.40
2022-08-08T09:04:05.945Z,30.50
2022-08-08T09:06:49.943Z,30.50
2022-08-08T09:09:37.495Z,30.60
2022-08-08T09:12:11.305Z,30.70
2022-08-08T09:14:42.384Z,30.80
2022-08-08T09:17:19.100Z,31.00
2022-08-08T09:22:02.282Z,31.10
2022-08-08T09:22:55.282Z,31.30
2022-08-08T09:25:35.912Z,31.20
2022-08-08T09:28:35.698Z,31.00
2022-08-08T09:31:12.611Z,30.90
2022-08-08T09:34:28.314Z,30.70
2022-08-08T09:36:38.942Z,30.50
2022-08-08T09:39:15.207Z,30.60
2022-08-08T09:42:20.944Z,30.80
2022-08-08T09:44:53.985Z,31.20
2022-08-08T09:48:02.014Z,31.20
2022-08-08T09:50:17.292Z,31.00
2022-08-08T09:52:56.700Z,30.70
2022-08-08T09:56:03.012Z,30.40
2022-08-08T09:58:27.775Z,30.20
2022-08-08T10:01:15.009Z,29.90
2022-08-08T10:03:56.290Z,29.90
2022-08-08T10:06:29.469Z,29.80
2022-08-08T10:08:57.292Z,29.60
2022-08-08T10:12:26.859Z,29.50
2022-08-08T10:14:28.374Z,29.30
2022-08-08T10:16:59.174Z,29.10
2022-08-08T10:19:57.444Z,29.10
2022-08-08T10:22:29.569Z,29.20
2022-08-08T10:25:03.295Z,29.40
2022-08-08T10:27:43.680Z,29.40
2022-08-08T10:30:16.795Z,29.50
2022-08-08T10:33:00.820Z,29.60
2022-08-08T10:36:20.017Z,29.80
2022-08-08T10:38:20.767Z,30.10
2022-08-08T10:40:53.596Z,30.40
2022-08-08T10:43:22.965Z,30.60
2022-08-08T10:45:55.769Z,31.00
2022-08-08T10:48:56.700Z,31.40
2022-08-08T10:51:31.168Z,31.80
2022-08-08T10:54:08.067Z,31.80
2022-08-08T10:56:36.183Z,31.70
2022-08-08T10:59:14.081Z,31.50
2022-08-08T11:01:49.562Z,31.30
2022-08-08T11:04:29.878Z,31.00
2022-08-08T11:07:07.227Z,30.70
2022-08-08T11:09:35.845Z,30.40
2022-08-08T11:12:13.791Z,30.20
2022-08-08T11:14:57.086Z,30.10
2022-08-08T11:18:00.183Z,29.90
2022-08-08T11:20:27.913Z,29.80
2022-08-08T11:22:56.203Z,29.90
2022-08-08T11:25:53.184Z,29.80
2022-08-08T11:28:20.866Z,29.90
2022-08-08T11:30:50.330Z,30.20
2022-08-08T11:33:51.041Z,30.60
2022-08-08T11:36:14.574Z,30.80
2022-08-08T11:38:54.866Z,31.10
2022-08-08T11:41:24.981Z,31.20
2022-08-08T11:43:58.147Z,31.30
2022-08-08T11:46:31.756Z,31.30
2022-08-08T11:49:04.297Z,31.30
2022-08-08T11:51:40.161Z,31.20
2022-08-08T11:54:31.338Z,31.10
2022-08-08T11:57:14.326Z,31.10
2022-08-08T12:00:00.455Z,31.00
2022-08-08T12:02:34.332Z,30.90
2022-08-08T12:05:12.276Z,30.90
2022-08-08T12:07:55.838Z,30.90
2022-08-08T12:10:28.143Z,31.00
2022-08-08T12:13:05.267Z,31.00
2022-08-08T12:15:42.030Z,31.00
2022-08-08T12:18:20.794Z,30.90
2022-08-08T12:20:50.218Z,30.90
2022-08-08T12:23:43.711Z,30.80
2022-08-08T12:26:57.102Z,30.70
2022-08-08T12:29:42.342Z,30.70
2022-08-08T12:32:20.159Z,30.70
2022-08-08T12:35:16.893Z,30.70
2022-08-08T12:38:01.527Z,30.80
2022-08-08T12:40:56.390Z,30.80
2022-08-08T12:43:43.417Z,31.00
2022-08-08T12:46:19.106Z,31.10
2022-08-08T12:51:58.646Z,31.40
2022-08-08T12:54:36.816Z,31.50
2022-08-08T12:57:24.502Z,31.70
2022-08-08T13:00:03.556Z,31.90
2022-08-08T13:02:51.073Z,32.10
2022-08-08T13:05:26.843Z,32.30
2022-08-08T13:08:33.380Z,32.60
2022-08-08T13:11:08.788Z,33.00
2022-08-08T13:13:38.600Z,33.10
2022-08-08T13:16:18.640Z,33.10
2022-08-08T13:18:55.867Z,32.90
2022-08-08T13:21:30.136Z,32.70
2022-08-08T13:24:18.688Z,32.50
2022-08-08T13:27:06.405Z,32.20
2022-08-08T13:29:49.617Z,32.00
2022-08-08T13:32:20.746Z,31.90
2022-08-08T13:34:55.198Z,31.80
2022-08-08T13:37:27.942Z,31.70
2022-08-08T13:40:17.827Z,31.70
2022-08-08T13:42:54.275Z,31.80
2022-08-08T13:45:24.228Z,31.90
2022-08-08T13:48:04.168Z,32.00
2022-08-08T13:50:48.062Z,32.20
2022-08-08T13:53:36.254Z,32.30
2022-08-08T13:56:11.232Z,32.50
2022-08-08T13:58:57.548Z,32.40
2022-08-08T14:01:56.684Z,32.40
2022-08-08T14:04:27.775Z,32.30
2022-08-08T14:07:04.276Z,31.90
2022-08-08T14:10:04.266Z,31.70
2022-08-08T14:12:28.713Z,31.40
2022-08-08T14:14:55.858Z,31.40
2022-08-08T14:17:58.106Z,31.40
2022-08-08T14:20:15.778Z,31.50
2022-08-08T14:23:21.328Z,31.50
2022-08-08T14:26:10.587Z,31.60
2022-08-08T14:28:39.914Z,31.60
2022-08-08T14:31:11.541Z,31.60
2022-08-08T14:33:55.807Z,31.60
2022-08-08T14:36:34.270Z,31.70
2022-08-08T14:39:02.765Z,31.70
2022-08-08T14:41:54.614Z,31.80
2022-08-08T14:44:35.322Z,31.80
2022-08-08T14:47:17.322Z,31.80
2022-08-08T14:50:05.809Z,31.70
2022-08-08T14:52:47.215Z,31.80
2022-08-08T14:55:16.439Z,31.80
2022-08-08T14:58:02.845Z,31.90
2022-08-08T15:00:37.683Z,32.00
2022-08-08T15:03:16.196Z,32.00
2022-08-08T15:05:54.664Z,32.00
2022-08-08T15:08:35.318Z,32.00
2022-08-08T15:11:09.364Z,31.90
2022-08-08T15:14:01.147Z,31.90
2022-08-08T15:16:29.582Z,31.90
2022-08-08T15:19:04.915Z,31.90
2022-08-08T15:21:32.186Z,32.00
2022-08-08T15:24:00.101Z,32.00
2022-08-08T15:26:28.844Z,31.80
2022-08-08T15:28:57.411Z,31.70
2022-08-08T15:32:03.140Z,31.70
2022-08-08T15:34:28.971Z,31.80
2022-08-08T15:36:59.579Z,31.80
2022-08-08T15:39:31.740Z,31.90
2022-08-08T15:42:17.956Z,31.80
2022-08-08T15:44:58.165Z,31.70
2022-08-08T15:47:25.205Z,31.70
2022-08-08T15:49:55.748Z,31.70
2022-08-08T15:52:24.994Z,31.70
2022-08-08T15:54:53.615Z,31.50
2022-08-08T15:57:40.024Z,31.30
2022-08-08T16:00:26.009Z,31.10
2022-08-08T16:02:59.147Z,30.80
2022-08-08T16:05:35.231Z,30.50
2022-08-08T16:08:03.173Z,30.30
2022-08-08T16:13:04.075Z,30.10
2022-08-08T16:13:33.460Z,30.00
2022-08-08T16:16:30.589Z,30.10
2022-08-08T16:19:23.367Z,30.20
2022-08-08T16:21:57.080Z,30.20
2022-08-08T16:24:39.745Z,30.30
2022-08-08T16:27:19.277Z,30.30
2022-08-08T16:30:13.020Z,30.30
2022-08-08T16:32:24.185Z,30.30
2022-08-08T16:34:54.566Z,30.20
2022-08-08T16:37:21.239Z,29.90
2022-08-08T16:40:00.649Z,29.70
2022-08-08T16:42:29.969Z,29.50
2022-08-08T16:44:58.941Z,29.40
2022-08-08T16:47:40.247Z,29.40
2022-08-08T16:50:15.489Z,29.30
2022-08-08T16:54:59.754Z,29.20
2022-08-08T16:55:54.980Z,29.10
2022-08-08T16:58:25.804Z,29.00
2022-08-08T17:00:54.692Z,28.90
2022-08-08T17:03:25.365Z,28.80
2022-08-08T17:06:37.050Z,28.70
2022-08-08T17:08:56.908Z,28.60
2022-08-08T17:11:28.378Z,28.50
2022-08-08T17:14:17.901Z,28.40
2022-08-08T17:16:51.673Z,28.30
2022-08-08T17:19:23.823Z,28.20
2022-08-08T17:21:50.565Z,28.10
2022-08-08T17:24:26.941Z,28.00
2022-08-08T17:26:55.029Z,27.90
2022-08-08T17:29:25.278Z,27.80
2022-08-08T17:31:52.836Z,27.80
2022-08-08T17:34:36.122Z,27.70
2022-08-08T17:37:06.759Z,27.60
2022-08-08T17:40:04.944Z,27.40
2022-08-08T17:42:24.099Z,27.30
2022-08-08T17:44:52.884Z,27.10
2022-08-08T17:47:24.372Z,27.00
2022-08-08T17:50:02.631Z,26.90
2022-08-08T17:52:31.770Z,26.80
2022-08-08T17:55:01.343Z,26.60
2022-08-08T17:57:35.585Z,26.40
2022-08-08T18:00:04.918Z,26.20
2022-08-08T18:02:40.304Z,26.20
2022-08-08T18:05:14.724Z,26.10
2022-08-08T18:08:15.505Z,26.00
2022-08-08T18:10:39.252Z,25.80
2022-08-08T18:13:07.411Z,25.70
2022-08-08T18:15:35.614Z,25.50
2022-08-08T18:18:28.412Z,25.40
2022-08-08T18:20:59.185Z,25.30
2022-08-08T18:23:27.227Z,25.20
2022-08-08T18:25:55.658Z,25.10
2022-08-08T18:28:28.360Z,25.00
2022-08-08T18:31:02.612Z,24.90
2022-08-08T18:34:10.145Z,24.80
2022-08-08T18:36:23.413Z,24.70
2022-08-08T18:38:51.907Z,24.60
2022-08-08T18:41:19.278Z,24.50
2022-08-08T18:44:07.033Z,24.40
2022-08-08T18:46:54.478Z,24.30
2022-08-08T18:49:32.682Z,24.20
2022-08-08T18:52:22.374Z,24.10
2022-08-08T18:54:59.655Z,24.00
2022-08-08T18:57:40.977Z,24.00
2022-08-08T19:00:15.555Z,23.80
2022-08-08T19:02:48.313Z,23.70
2022-08-08T19:05:31.886Z,23.60
2022-08-08T19:08:01.292Z,23.60
2022-08-08T19:10:29.741Z,23.50
2022-08-08T19:12:56.870Z,23.30
2022-08-08T19:15:26.157Z,23.30
2022-08-08T19:18:32.133Z,23.20
2022-08-08T19:20:47.815Z,23.20
2022-08-08T19:23:14.542Z,23.00
2022-08-08T19:26:26.976Z,23.00
2022-08-08T19:28:30.650Z,22.90
2022-08-08T19:31:03.448Z,22.90
2022-08-08T19:33:39.699Z,22.80
2022-08-08T19:36:25.173Z,22.70
2022-08-08T19:38:55.966Z,22.60
2022-08-08T19:41:30.920Z,22.50
2022-08-08T19:44:12.876Z,22.50
2022-08-08T19:46:49.484Z,22.40
2022-08-08T19:49:16.628Z,22.40
2022-08-08T19:51:45.035Z,22.30
2022-08-08T19:54:12.535Z,22.30
2022-08-08T19:56:41.492Z,22.20
2022-08-08T19:59:15.280Z,22.10
2022-08-08T20:01:59.740Z,22.10
2022-08-08T20:04:30.603Z,22.00
2022-08-08T20:07:03.441Z,22.00
2022-08-08T20:09:32.515Z,21.90
2022-08-08T20:12:09.292Z,21.80
2022-08-08T20:14:41.930Z,21.80
2022-08-08T20:17:11.665Z,21.70
2022-08-08T20:19:42.156Z,21.70
2022-08-08T20:22:20.961Z,21.60
2022-08-08T20:24:57.976Z,21.60
2022-08-08T20:27:43.675Z,21.50
2022-08-08T20:30:53.164Z,21.50
2022-08-08T20:33:01.617Z,21.40
2022-08-08T20:35:32.655Z,21.30
2022-08-08T20:38:16.595Z,21.30
2022-08-08T20:40:47.435Z,21.20
2022-08-08T20:43:22.931Z,21.20
2022-08-08T20:46:04.854Z,21.20
2022-08-08T20:48:32.139Z,21.10
2022-08-08T20:50:59.150Z,21.10
2022-08-08T20:54:00.139Z,21.00
2022-08-08T20:56:14.342Z,21.00
2022-08-08T20:58:47.981Z,21.00
2022-08-08T21:01:19.745Z,20.90
2022-08-08T21:03:55.496Z,20.90
2022-08-08T21:06:52.698Z,20.90
2022-08-08T21:09:16.018Z,20.80
2022-08-08T21:11:50.497Z,20.80
2022-08-08T21:14:30.364Z,20.80
2022-08-08T21:17:06.401Z,20.80
2022-08-08T21:19:45.571Z,20.70
2022-08-08T21:22:14.451Z,20.70
2022-08-08T21:24:53.353Z,20.70
2022-08-08T21:28:05.886Z,20.60
2022-08-08T21:30:19.239Z,20.60
2022-08-08T21:32:52.133Z,20.50
2022-08-08T21:36:17.681Z,20.50
2022-08-08T21:38:12.037Z,20.50
2022-08-08T21:40:55.947Z,20.40
2022-08-08T21:43:33.159Z,20.30
2022-08-08T21:48:07.862Z,20.30
2022-08-08T21:48:49.493Z,20.30
2022-08-08T21:54:18.340Z,20.20
2022-08-08T21:54:35.309Z,20.20
2022-08-08T21:57:00.023Z,20.20
2022-08-08T22:00:01.904Z,20.10
2022-08-08T22:02:16.113Z,20.10
2022-08-08T22:04:46.481Z,20.10
2022-08-08T22:07:13.289Z,20.00
2022-08-08T22:09:43.590Z,20.00
2022-08-08T22:12:15.054Z,20.00
2022-08-08T22:14:49.897Z,20.00
2022-08-08T22:17:19.306Z,19.90
2022-08-08T22:20:13.073Z,19.90
2022-08-08T22:22:38.083Z,19.80
2022-08-08T22:25:19.833Z,19.80
2022-08-08T22:28:03.561Z,19.70
2022-08-08T22:30:32.498Z,19.70
2022-08-08T22:33:01.129Z,19.60
2022-08-08T22:36:04.034Z,19.70
2022-08-08T22:38:17.511Z,19.60
2022-08-08T22:40:45.168Z,19.60
2022-08-08T22:43:15.599Z,19.60
2022-08-08T22:45:43.965Z,19.50
2022-08-08T22:48:13.992Z,19.50
2022-08-08T22:50:41.193Z,19.50
2022-08-08T22:54:27.827Z,19.40
2022-08-08T22:56:01.490Z,19.40
2022-08-08T22:58:34.188Z,19.40
2022-08-08T23:02:01.089Z,19.40
2022-08-08T23:03:57.417Z,19.30
2022-08-08T23:06:25.552Z,19.30
2022-08-08T23:08:55.321Z,19.30
2022-08-08T23:11:30.969Z,19.30
2022-08-08T23:14:16.311Z,19.20
2022-08-08T23:16:44.234Z,19.20
2022-08-08T23:19:15.579Z,19.20
2022-08-08T23:21:46.980Z,19.10
2022-08-08T23:24:22.989Z,19.10
2022-08-08T23:26:53.317Z,19.10
2022-08-08T23:29:25.227Z,19.10
2022-08-08T23:31:52.858Z,19.00
2022-08-08T23:34:20.512Z,19.00
2022-08-08T23:36:48.302Z,19.00
2022-08-08T23:39:15.810Z,19.00
2022-08-08T23:41:47.040Z,18.90
2022-08-08T23:44:20.122Z,18.90
2022-08-08T23:49:00.209Z,18.90
2022-08-08T23:49:38.809Z,18.80
2022-08-08T23:52:08.830Z,18.80
2022-08-08T23:54:43.429Z,18.80
2022-08-08T23:57:39.041Z,18.70
